Time;durP1;ratioP1;P1;durP2;ratioP2;P2;SDS_P1;SDS_P2;PMS_P1;PMS_P2;Temp;Humidity;BMP_temperature;BMP_pressure;BME280_temperature;BME280_humidity;BME280_pressure;Samples;Min_cycle;Max_cycle;Signal;HPM_P1;HPM_P2
2021/08/12 00:01:14;;;;;;;12.10;4.70;;;;;;;29.54;53.88;101114.66;4989468;28;70006;-34
2021/08/12 00:03:45;;;;;;;16.23;5.30;;;;;;;29.62;54.43;101116.34;4975644;28;66973;-34
2021/08/12 00:06:21;;;;;;;15.55;5.75;;;;;;;29.64;56.65;101108.84;4977293;28;70026;-33
2021/08/12 00:08:52;;;;;;;6.00;5.35;;;;;;;29.78;57.08;101115.97;4978016;28;66901;-33
2021/08/12 00:11:47;;;;;;;8.82;6.00;;;;;;;29.87;59.13;101126.56;4978211;28;70999;-34
2021/08/12 00:14:21;;;;;;;6.95;6.10;;;;;;;29.95;58.48;101118.22;4968716;28;65999;-34
2021/08/12 00:17:00;;;;;;;17.05;6.03;;;;;;;30.03;59.64;101126.13;4942849;28;43674;-35
2021/08/12 00:19:30;;;;;;;14.05;6.63;;;;;;;30.00;58.86;101107.63;4989010;28;65438;-36
2021/08/12 00:22:08;;;;;;;25.63;6.95;;;;;;;30.13;59.80;101118.44;4978678;28;69770;-35
2021/08/12 00:24:39;;;;;;;8.18;5.97;;;;;;;30.19;60.45;101122.19;4975717;28;65960;-35
2021/08/12 00:27:09;;;;;;;7.00;6.30;;;;;;;30.22;59.26;101116.38;4974570;28;70257;-35
2021/08/12 00:29:40;;;;;;;6.65;6.18;;;;;;;30.31;59.96;101130.50;4993381;28;66068;-35
2021/08/12 00:32:20;;;;;;;6.15;5.70;;;;;;;30.32;60.29;101121.38;4977387;28;69288;-34
2021/08/12 00:35:17;;;;;;;14.13;5.75;;;;;;;30.37;60.58;101118.84;4986837;28;66638;-35
2021/08/12 00:37:48;;;;;;;17.48;6.28;;;;;;;30.40;61.34;101119.28;4973992;28;70722;-34
2021/08/12 00:40:22;;;;;;;10.82;7.05;;;;;;;30.37;62.60;101114.28;4977121;28;65233;-35
2021/08/12 00:43:32;;;;;;;8.15;7.32;;;;;;;30.38;64.18;101115.09;4987743;28;70809;-35
2021/08/12 00:46:23;;;;;;;10.70;6.82;;;;;;;30.44;62.84;101119.66;4973374;28;66711;-34
2021/08/12 00:49:03;;;;;;;12.93;6.53;;;;;;;30.45;63.27;101126.75;4977596;28;70117;-34
2021/08/12 00:51:40;;;;;;;6.13;5.63;;;;;;;30.44;63.76;101116.97;4986367;28;65835;-34
2021/08/12 00:54:13;;;;;;;6.55;5.82;;;;;;;30.44;62.74;101122.38;4961913;28;69644;-35
2021/08/12 00:56:46;;;;;;;7.43;6.00;;;;;;;30.41;64.03;101115.50;4974991;28;66236;-35
2021/08/12 00:59:17;;;;;;;7.20;6.70;;;;;;;30.56;64.24;101142.31;4962175;28;70170;-33
2021/08/12 01:01:48;;;;;;;6.53;6.13;;;;;;;30.59;64.30;101144.63;4980155;28;66538;-33
2021/08/12 01:04:50;;;;;;;8.47;5.20;;;;;;;30.61;64.01;101130.88;4972989;28;69653;-33
2021/08/12 01:07:27;;;;;;;10.10;5.15;;;;;;;30.64;63.87;101131.28;4976821;28;65728;-35
2021/08/12 01:10:25;;;;;;;7.45;5.07;;;;;;;30.67;64.76;101132.72;4946916;28;71190;-36
2021/08/12 01:13:15;;;;;;;5.88;5.07;;;;;;;30.68;64.57;101137.94;4972935;28;66587;-36
2021/08/12 01:15:58;;;;;;;5.53;5.07;;;;;;;30.35;64.40;101077.66;4976824;28;70088;-35
2021/08/12 01:18:41;;;;;;;6.50;5.90;;;;;;;30.76;63.60;101139.59;4974041;28;65334;-36
2021/08/12 01:21:55;;;;;;;5.75;5.22;;;;;;;30.63;64.26;101129.63;4975405;28;70199;-35
2021/08/12 01:24:29;;;;;;;4.82;4.50;;;;;;;30.80;63.48;101134.59;4974989;28;66702;-35
2021/08/12 01:27:04;;;;;;;4.65;4.32;;;;;;;30.83;62.66;101139.59;4992370;28;70257;-36
2021/08/12 01:29:50;;;;;;;10.07;4.90;;;;;;;30.85;63.12;101137.50;4974191;28;66342;-36
2021/08/12 01:32:27;;;;;;;5.22;4.78;;;;;;;30.70;62.87;101108.78;4992198;28;69068;-34
2021/08/12 01:35:21;;;;;;;4.93;4.60;;;;;;;30.90;62.66;101127.69;4986593;28;65912;-36
2021/08/12 01:37:57;;;;;;;5.80;5.40;;;;;;;30.46;62.37;101047.22;4980834;28;69786;-35
2021/08/12 01:40:31;;;;;;;7.97;4.78;;;;;;;30.98;62.10;101125.75;4980890;28;66299;-34
2021/08/12 01:43:06;;;;;;;5.20;4.80;;;;;;;30.94;62.49;101109.13;4978644;28;70328;-35
2021/08/12 01:45:37;;;;;;;5.15;4.65;;;;;;;31.08;62.48;101124.25;4976060;28;66974;-35
2021/08/12 01:48:10;;;;;;;16.05;5.00;;;;;;;31.07;62.60;101111.78;4962147;28;69354;-35
2021/08/12 01:50:43;;;;;;;5.07;4.68;;;;;;;31.16;62.06;101121.31;4967596;28;66648;-35
2021/08/12 01:53:16;;;;;;;11.48;5.45;;;;;;;31.21;61.95;101130.69;4976620;28;70160;-36
2021/08/12 01:55:48;;;;;;;5.68;5.18;;;;;;;31.20;61.85;101112.72;4977430;28;66087;-35
2021/08/12 01:58:23;;;;;;;7.35;5.43;;;;;;;30.98;61.31;101069.72;4977704;28;70236;-35
2021/08/12 02:00:56;;;;;;;6.05;4.82;;;;;;;31.27;62.16;101118.97;4988310;28;66396;-36
2021/08/12 02:03:28;;;;;;;4.50;4.20;;;;;;;31.27;61.64;101118.97;4975107;28;70224;-36
2021/08/12 02:06:00;;;;;;;9.40;3.90;;;;;;;31.33;61.10;101126.22;4973340;28;66591;-35
2021/08/12 02:08:33;;;;;;;4.15;3.75;;;;;;;31.14;61.15;101087.34;4980842;28;70013;-35
2021/08/12 02:11:04;;;;;;;3.65;3.25;;;;;;;31.41;61.56;101126.00;4977912;28;65546;-36
2021/08/12 02:13:35;;;;;;;3.83;3.50;;;;;;;31.41;61.47;101119.75;4974969;28;69127;-36
2021/08/12 02:16:11;;;;;;;3.50;3.15;;;;;;;31.43;61.52;101117.66;4973115;28;66502;-35
2021/08/12 02:18:43;;;;;;;5.13;3.03;;;;;;;31.51;61.51;101131.78;4981537;28;69944;-35
2021/08/12 02:21:33;;;;;;;3.30;2.42;;;;;;;31.46;61.34;101109.09;4969101;28;66505;-36
2021/08/12 02:24:27;;;;;;;7.57;3.00;;;;;;;31.53;60.93;101113.38;4968496;28;69559;-36
2021/08/12 02:27:07;;;;;;;5.93;3.10;;;;;;;31.65;61.19;101131.66;4983523;28;65564;-36
2021/08/12 02:29:43;;;;;;;2.80;2.50;;;;;;;31.68;61.31;101125.78;4974989;28;70066;-37
2021/08/12 02:32:16;;;;;;;5.97;2.25;;;;;;;31.67;60.85;101119.53;4972222;28;65713;-36
2021/08/12 02:34:50;;;;;;;2.60;2.40;;;;;;;31.34;61.45;101057.41;4971915;28;69483;-36
2021/08/12 02:37:25;;;;;;;6.13;2.80;;;;;;;31.04;61.17;101013.84;4948064;28;65401;-37
2021/08/12 02:39:58;;;;;;;2.50;2.30;;;;;;;31.79;61.60;101123.22;4987613;28;69447;-36
2021/08/12 02:42:29;;;;;;;3.65;3.20;;;;;;;31.65;60.73;101107.25;4983133;28;65643;-37
2021/08/12 02:45:00;;;;;;;3.22;2.58;;;;;;;31.39;60.56;101061.13;4972586;28;70294;-39
2021/08/12 02:47:35;;;;;;;3.65;2.63;;;;;;;31.86;60.56;101117.72;4975324;28;66793;-37
2021/08/12 02:50:10;;;;;;;3.05;2.75;;;;;;;31.87;60.92;101124.81;4970660;28;68756;-38
2021/08/12 02:53:10;;;;;;;2.88;2.47;;;;;;;31.91;60.31;101117.94;4963595;28;66164;-38
2021/08/12 02:56:06;;;;;;;2.35;2.15;;;;;;;31.49;60.06;101052.53;4985799;28;70417;-38
2021/08/12 02:58:38;;;;;;;5.32;2.22;;;;;;;31.92;59.53;101111.44;4978688;28;65811;-39
2021/08/12 03:01:15;;;;;;;4.07;1.80;;;;;;;31.92;59.84;101110.63;4971920;28;69638;-39
2021/08/12 03:03:51;;;;;;;4.68;1.98;;;;;;;31.95;59.75;101115.59;4986388;28;65533;-38
2021/08/12 03:06:22;;;;;;;2.85;2.20;;;;;;;31.96;59.50;101107.25;4968253;28;69316;-40
2021/08/12 03:08:53;;;;;;;;;;;;;;;31.77;60.23;101111.75;4975830;28;66515;-40
2021/08/12 03:11:25;;;;;;;6.28;2.20;;;;;;;31.97;59.74;101114.31;4974086;28;69369;-38
2021/08/12 03:13:56;;;;;;;14.15;2.17;;;;;;;31.97;59.45;101114.31;4971490;28;66454;-38
2021/08/12 03:16:50;;;;;;;3.22;2.20;;;;;;;31.97;59.24;101125.19;4970901;28;70333;-39
2021/08/12 03:19:26;;;;;;;4.47;2.40;;;;;;;31.95;59.81;101121.84;4971284;28;66383;-39
2021/08/12 03:22:07;;;;;;;4.28;2.13;;;;;;;31.90;59.35;101102.69;4958040;28;70444;-38
2021/08/12 03:24:47;;;;;;;2.90;2.58;;;;;;;32.02;59.41;101102.81;4956086;28;66226;-39
2021/08/12 03:27:38;;;;;;;3.22;2.40;;;;;;;31.97;59.54;101092.63;4974170;28;69800;-38
2021/08/12 03:30:19;;;;;;;2.22;2.03;;;;;;;32.05;59.02;101111.34;4942729;28;65597;-38
2021/08/12 03:32:50;;;;;;;3.25;2.50;;;;;;;32.09;58.63;101116.31;4924402;28;71204;-39
2021/08/12 03:35:26;;;;;;;4.95;2.08;;;;;;;32.09;58.73;101121.75;4943342;28;66569;-38
2021/08/12 03:38:03;;;;;;;2.08;1.88;;;;;;;32.05;58.80;101111.34;4982225;28;68033;-39
2021/08/12 03:40:38;;;;;;;3.15;2.45;;;;;;;32.01;59.12;101107.41;4956598;28;66421;-39
2021/08/12 03:43:30;;;;;;;3.08;2.00;;;;;;;32.00;59.50;101097.59;4959924;28;70610;-38
2021/08/12 03:46:00;;;;;;;3.33;1.90;;;;;;;31.98;59.26;101105.16;4957567;28;66429;-39
2021/08/12 03:48:39;;;;;;;5.32;2.10;;;;;;;31.95;59.35;101137.31;4958545;28;69942;-37
2021/08/12 03:51:10;;;;;;;2.28;2.05;;;;;;;31.91;59.44;101136.06;4923548;28;66048;-38
2021/08/12 03:53:41;;;;;;;3.80;1.80;;;;;;;31.91;59.28;101150.50;4959202;28;70513;-39
2021/08/12 03:56:15;;;;;;;2.50;1.95;;;;;;;31.87;59.38;101160.06;4969842;28;66120;-42
2021/08/12 03:58:45;;;;;;;5.43;1.98;;;;;;;31.88;59.43;101159.03;4973829;28;70128;-40
2021/08/12 04:01:37;;;;;;;3.50;2.03;;;;;;;31.75;58.98;101142.88;4971059;28;66411;-39
2021/08/12 04:04:10;;;;;;;2.30;2.10;;;;;;;31.82;59.00;101158.03;4973974;28;69323;-40
2021/08/12 04:06:58;;;;;;;7.68;3.17;;;;;;;31.80;59.13;101162.84;4975364;28;66347;-39
2021/08/12 04:09:30;;;;;;;6.45;3.55;;;;;;;31.79;59.82;101157.66;4986404;28;68748;-37
2021/08/12 04:12:02;;;;;;;9.30;3.50;;;;;;;31.80;60.20;101157.44;4977523;28;66103;-37
2021/08/12 04:14:33;;;;;;;16.17;4.55;;;;;;;31.77;61.53;101162.47;4983286;28;68840;-37
2021/08/12 04:17:05;;;;;;;13.52;5.05;;;;;;;31.76;62.01;101155.34;4976302;28;66764;-38
2021/08/12 04:19:58;;;;;;;6.97;5.22;;;;;;;31.58;62.71;101142.56;4959552;28;69906;-38
2021/08/12 04:22:28;;;;;;;9.07;4.95;;;;;;;31.65;62.25;101153.34;4972249;28;65502;-38
2021/08/12 04:25:13;;;;;;;6.72;5.28;;;;;;;31.65;62.88;101158.78;4969282;28;69162;-38
2021/08/12 04:28:12;;;;;;;8.63;5.25;;;;;;;31.52;62.65;101154.28;4947723;28;66246;-38
2021/08/12 04:31:05;;;;;;;6.57;5.20;;;;;;;31.52;63.38;101149.69;4954786;28;70717;-38
2021/08/12 04:33:36;;;;;;;5.85;5.28;;;;;;;31.50;63.61;101140.94;4941988;28;66139;-38
2021/08/12 04:36:07;;;;;;;6.18;5.10;;;;;;;31.47;63.12;101130.53;4970161;28;70059;-39
2021/08/12 04:38:43;;;;;;;7.82;5.40;;;;;;;31.55;63.29;101143.00;4970286;28;66299;-38
2021/08/12 04:41:14;;;;;;;6.03;5.13;;;;;;;31.56;63.36;101140.06;4960981;28;69233;-37
2021/08/12 04:44:17;;;;;;;4.85;4.50;;;;;;;31.60;63.46;101135.06;4923898;28;66285;-38
2021/08/12 04:46:48;;;;;;;5.30;4.80;;;;;;;31.59;63.80;101127.94;4903842;28;69442;-38
2021/08/12 04:49:20;;;;;;;5.05;4.65;;;;;;;31.60;63.42;101119.59;4951119;28;65734;-39
2021/08/12 04:51:58;;;;;;;6.43;5.05;;;;;;;31.62;63.62;101111.22;4951862;28;70266;-37
2021/08/12 04:54:30;;;;;;;5.45;4.95;;;;;;;31.58;63.95;101102.72;4920882;28;66149;-37
2021/08/12 04:57:07;;;;;;;5.10;4.60;;;;;;;31.57;63.81;101090.22;4965284;28;69903;-37
2021/08/12 04:59:39;;;;;;;18.02;4.65;;;;;;;31.57;63.38;101086.69;4962138;28;66252;-39
2021/08/12 05:02:10;;;;;;;6.75;4.45;;;;;;;31.55;61.53;101095.03;4977248;28;69531;-37
2021/08/12 05:04:41;;;;;;;10.53;4.07;;;;;;;31.39;60.68;101076.56;4976494;28;65365;-37
2021/08/12 05:07:12;;;;;;;14.10;3.50;;;;;;;31.25;59.57;101083.09;4972248;28;70327;-37
2021/08/12 05:09:44;;;;;;;12.77;3.05;;;;;;;31.12;58.89;101068.59;4990141;28;65965;-39
2021/08/12 05:12:19;;;;;;;5.45;2.60;;;;;;;31.00;56.37;101078.44;4974061;28;70931;-37
2021/08/12 05:14:51;;;;;;;9.05;2.33;;;;;;;30.90;56.62;101076.22;4989877;28;65565;-42
2021/08/12 05:17:23;;;;;;;6.90;2.30;;;;;;;30.79;55.22;101063.31;4963999;28;70372;-39
2021/08/12 05:19:55;;;;;;;6.93;1.30;;;;;;;30.69;54.78;101057.53;4986653;28;65362;-39
2021/08/12 05:22:25;;;;;;;1.45;0.93;;;;;;;30.62;54.45;101046.75;4969856;28;70195;-43
2021/08/12 05:24:56;;;;;;;1.77;1.10;;;;;;;30.57;53.49;101038.44;4976108;28;65693;-41
2021/08/12 05:27:28;;;;;;;1.77;1.10;;;;;;;30.45;53.08;101023.88;4970817;28;69517;-44
2021/08/12 05:29:59;;;;;;;2.75;0.80;;;;;;;30.43;52.27;101023.28;4956366;28;66617;-40
2021/08/12 05:32:31;;;;;;;3.22;0.80;;;;;;;30.36;51.52;101011.63;4969906;28;70063;-38
2021/08/12 05:35:05;;;;;;;7.43;0.90;;;;;;;30.34;51.44;101011.00;4974310;28;65872;-39
2021/08/12 05:37:36;;;;;;;1.10;0.68;;;;;;;29.94;50.46;100955.13;4968270;28;69014;-38
2021/08/12 05:40:08;;;;;;;2.03;0.50;;;;;;;30.21;50.10;100993.75;4967060;28;66286;-37
2021/08/12 05:42:39;;;;;;;1.48;0.68;;;;;;;30.14;50.07;100984.81;4967521;28;70297;-40
2021/08/12 05:45:10;;;;;;;0.55;0.43;;;;;;;30.03;49.45;100980.06;4953281;28;66251;-39
2021/08/12 05:47:41;;;;;;;0.60;0.60;;;;;;;30.11;49.97;100982.53;4972650;28;71909;-40
2021/08/12 05:50:14;;;;;;;2.38;0.40;;;;;;;30.05;48.58;100984.22;4970482;28;65348;-40
2021/08/12 05:52:46;;;;;;;1.70;0.50;;;;;;;30.01;48.85;100976.75;4954458;28;70529;-40
2021/08/12 05:55:18;;;;;;;0.50;0.50;;;;;;;30.01;48.49;100979.47;4938531;28;66163;-38
2021/08/12 05:57:50;;;;;;;0.53;0.50;;;;;;;29.95;48.36;100974.88;4969477;28;69554;-39
2021/08/12 06:00:21;;;;;;;0.80;0.40;;;;;;;29.93;48.21;100982.41;4980063;28;66346;-39
2021/08/12 06:02:56;;;;;;;0.45;0.40;;;;;;;29.89;47.28;100964.91;4962855;28;69268;-44
2021/08/12 06:05:34;;;;;;;0.63;0.40;;;;;;;29.83;47.16;100962.00;4969627;28;66526;-39
2021/08/12 06:08:08;;;;;;;0.73;0.40;;;;;;;29.91;47.52;100979.06;4966421;28;69838;-39
2021/08/12 06:10:42;;;;;;;0.50;0.32;;;;;;;29.93;47.49;100977.00;4966627;28;66668;-39
2021/08/12 06:13:13;;;;;;;4.88;0.60;;;;;;;29.92;46.63;100967.19;4967977;28;70512;-41
2021/08/12 06:15:45;;;;;;;1.20;0.60;;;;;;;29.91;46.12;100963.66;4963366;28;66599;-39
2021/08/12 06:18:16;;;;;;;0.75;0.57;;;;;;;29.96;46.36;100954.94;4965918;28;69081;-38
2021/08/12 06:20:47;;;;;;;2.60;0.57;;;;;;;29.96;45.51;100944.09;4969846;28;66608;-39
2021/08/12 06:23:21;;;;;;;2.47;0.55;;;;;;;29.96;45.31;100936.00;4972315;28;69136;-38
2021/08/12 06:25:52;;;;;;;4.53;0.85;;;;;;;29.99;45.19;100932.84;4967781;28;66145;-38
2021/08/12 06:28:24;;;;;;;;;;;;;;;29.70;44.81;100924.22;4975364;28;69377;-38
2021/08/12 06:30:56;;;;;;;1.30;0.77;;;;;;;29.92;45.48;100915.81;4960107;28;66845;-40
2021/08/12 06:33:31;;;;;;;7.10;0.60;;;;;;;29.98;44.74;100914.97;4972374;28;69796;-39
2021/08/12 06:36:02;;;;;;;0.80;0.80;;;;;;;29.96;44.67;100903.53;4972086;28;66868;-39
2021/08/12 06:38:35;;;;;;;3.50;0.60;;;;;;;29.92;44.71;100883.34;4976659;28;69369;-38
2021/08/12 06:41:08;;;;;;;2.20;0.70;;;;;;;29.99;43.83;100895.00;4955621;28;64078;-39
2021/08/12 06:43:45;;;;;;;1.00;0.52;;;;;;;29.97;44.06;100880.84;4989599;28;69949;-39
2021/08/12 06:46:17;;;;;;;0.50;0.50;;;;;;;30.03;43.31;100890.81;4989466;28;66277;-39
2021/08/12 06:48:49;;;;;;;2.15;0.60;;;;;;;30.03;43.48;100874.56;4974460;28;70131;-38
2021/08/12 06:51:40;;;;;;;3.50;0.57;;;;;;;30.01;43.73;100874.81;4979670;28;65685;-39
2021/08/12 06:54:11;;;;;;;3.55;0.60;;;;;;;29.98;42.79;100863.59;4973556;28;69249;-38
2021/08/12 06:56:44;;;;;;;0.93;0.70;;;;;;;29.96;43.34;100862.97;4974274;28;66757;-39
2021/08/12 06:59:14;;;;;;;0.70;0.45;;;;;;;29.99;43.86;100873.34;4976666;28;70582;-39
2021/08/12 07:01:45;;;;;;;3.22;0.60;;;;;;;29.85;42.55;100845.53;4990136;28;67229;-37
2021/08/12 07:04:20;;;;;;;5.57;0.63;;;;;;;30.06;43.59;100874.13;4974986;28;70100;-39
2021/08/12 07:06:55;;;;;;;7.25;0.70;;;;;;;30.06;44.31;100864.19;4982674;28;66266;-38
2021/08/12 07:09:26;;;;;;;1.33;0.90;;;;;;;30.05;43.42;100864.38;4977704;28;69493;-38
2021/08/12 07:11:57;;;;;;;1.83;0.80;;;;;;;30.09;44.13;100864.78;4977131;28;66031;-40
2021/08/12 07:14:43;;;;;;;;;;;;;;;29.77;43.45;100868.22;4974680;28;70906;-39
2021/08/12 07:17:14;;;;;;;3.78;0.80;;;;;;;30.07;42.69;100865.00;4974977;28;66026;-39
2021/08/12 07:19:48;;;;;;;5.63;0.68;;;;;;;30.02;43.20;100843.16;4973545;28;70712;-40
2021/08/12 07:22:19;;;;;;;1.70;0.80;;;;;;;30.11;42.34;100855.41;4970855;28;66392;-44
2021/08/12 07:24:51;;;;;;;1.40;1.02;;;;;;;30.10;42.34;100858.34;4986718;28;70061;-40
2021/08/12 07:27:22;;;;;;;6.60;0.90;;;;;;;30.14;42.65;100854.13;4958570;28;66208;-41
2021/08/12 07:29:56;;;;;;;4.82;0.80;;;;;;;30.13;42.20;100847.91;4971635;28;69057;-38
2021/08/12 07:32:27;;;;;;;1.35;0.75;;;;;;;30.15;42.46;100845.00;4959742;28;66502;-40
2021/08/12 07:35:04;;;;;;;1.70;0.90;;;;;;;30.12;42.87;100845.44;4969117;28;69226;-40
2021/08/12 07:37:36;;;;;;;1.83;0.80;;;;;;;30.14;44.91;100838.72;4975368;28;65410;-40
2021/08/12 07:40:07;;;;;;;1.75;1.02;;;;;;;30.18;45.98;100834.56;4975389;28;69777;-40
2021/08/12 07:42:39;;;;;;;4.03;0.93;;;;;;;30.24;45.69;100843.72;4960309;28;64089;-39
2021/08/12 07:45:19;;;;;;;5.03;1.17;;;;;;;30.30;46.91;100842.84;4970832;28;69332;-41
2021/08/12 07:47:50;;;;;;;2.25;1.10;;;;;;;30.37;48.63;100832.81;4979369;28;66245;-40
2021/08/12 07:50:21;;;;;;;1.33;0.90;;;;;;;30.54;50.40;100843.13;4988293;28;69619;-40
2021/08/12 07:52:54;;;;;;;3.00;0.95;;;;;;;30.50;51.19;100821.06;4971118;28;66241;-39
2021/08/12 07:55:25;;;;;;;3.35;0.82;;;;;;;30.73;52.09;100844.84;4985919;28;70356;-38
2021/08/12 07:57:56;;;;;;;4.43;0.85;;;;;;;30.83;52.54;100841.66;4978894;28;65464;-39
2021/08/12 08:00:28;;;;;;;2.40;1.25;;;;;;;30.90;53.26;100837.88;4966641;28;68948;-39
2021/08/12 08:03:02;;;;;;;1.50;1.27;;;;;;;30.99;53.57;100832.16;4972804;28;66722;-40
2021/08/12 08:05:35;;;;;;;1.73;0.93;;;;;;;31.04;53.76;100833.16;4973618;28;70165;-39
2021/08/12 08:08:06;;;;;;;1.63;1.23;;;;;;;31.19;54.29;100848.22;4957037;28;66469;-41
2021/08/12 08:10:37;;;;;;;1.10;0.85;;;;;;;31.24;54.60;100853.81;4965255;28;70333;-39
2021/08/12 08:13:11;;;;;;;2.63;0.90;;;;;;;31.23;54.64;100835.88;4974208;28;66303;-39
2021/08/12 08:15:42;;;;;;;1.40;1.20;;;;;;;31.38;54.73;100855.38;4956295;28;71138;-40
2021/08/12 08:18:13;;;;;;;2.13;1.42;;;;;;;31.43;55.08;100863.66;4976304;28;66252;-39
2021/08/12 08:20:45;;;;;;;3.28;1.50;;;;;;;31.40;55.06;100845.13;4986790;28;70467;-39
2021/08/12 08:23:16;;;;;;;1.73;1.40;;;;;;;31.40;56.02;100826.16;4965955;28;65789;-40
2021/08/12 08:25:47;;;;;;;1.33;1.20;;;;;;;31.57;55.98;100848.91;4975183;28;70655;-39
2021/08/12 08:28:18;;;;;;;1.73;1.57;;;;;;;31.67;56.23;100853.78;4976659;28;66101;-39
2021/08/12 08:30:49;;;;;;;2.10;1.10;;;;;;;31.73;56.31;100855.63;4959280;28;69276;-39
2021/08/12 08:33:21;;;;;;;1.48;1.30;;;;;;;31.76;56.52;100846.16;4975371;28;66034;-39
2021/08/12 08:35:51;;;;;;;3.05;1.67;;;;;;;31.69;56.64;100823.75;4974230;28;70279;-40
2021/08/12 08:38:25;;;;;;;2.38;1.52;;;;;;;31.85;57.14;100846.72;4979690;28;65678;-39
2021/08/12 08:40:56;;;;;;;1.73;1.58;;;;;;;31.88;56.69;100838.94;4975879;28;70274;-40
2021/08/12 08:43:30;;;;;;;3.40;1.35;;;;;;;31.83;57.05;100826.06;4973225;28;67129;-40
2021/08/12 08:46:02;;;;;;;1.60;1.50;;;;;;;31.85;57.14;100820.41;4988837;28;70340;-38
2021/08/12 08:48:36;;;;;;;3.47;1.50;;;;;;;32.00;57.23;100847.16;4958485;28;66337;-38
2021/08/12 08:51:08;;;;;;;4.88;1.52;;;;;;;32.04;57.37;100857.34;4966403;28;70232;-41
2021/08/12 08:53:41;;;;;;;1.77;1.52;;;;;;;32.07;56.83;100857.91;4984614;28;65798;-40
2021/08/12 08:56:12;;;;;;;2.78;2.00;;;;;;;32.03;57.48;100850.22;4971790;28;68735;-46
2021/08/12 08:58:43;;;;;;;4.18;1.83;;;;;;;32.08;57.53;100851.44;4972737;28;65518;-45
2021/08/12 09:01:14;;;;;;;4.32;2.05;;;;;;;32.12;57.97;100845.31;4973209;28;70133;-41
2021/08/12 09:03:45;;;;;;;2.45;2.20;;;;;;;32.12;57.39;100839.06;4972883;28;66068;-39
2021/08/12 09:06:17;;;;;;;2.33;2.13;;;;;;;32.16;58.02;100851.13;4966667;28;69148;-39
2021/08/12 09:08:48;;;;;;;2.87;2.07;;;;;;;32.17;58.06;100848.16;4976881;28;66862;-39
2021/08/12 09:11:21;;;;;;;2.42;2.22;;;;;;;31.94;58.21;100793.81;4972420;28;70174;-38
2021/08/12 09:13:52;;;;;;;2.10;1.90;;;;;;;32.22;57.89;100839.34;4972068;28;66466;-39
2021/08/12 09:16:30;;;;;;;2.37;1.77;;;;;;;32.27;58.10;100847.63;4959723;28;70067;-39
2021/08/12 09:19:22;;;;;;;2.92;2.13;;;;;;;31.47;58.17;100728.50;4974737;28;66882;-39
2021/08/12 09:22:03;;;;;;;4.18;2.45;;;;;;;32.21;58.02;100843.13;4972740;28;69667;-39
2021/08/12 09:24:50;;;;;;;2.22;1.95;;;;;;;32.28;58.17;100854.72;4979404;28;65877;-39
2021/08/12 09:27:22;;;;;;;1.85;1.75;;;;;;;32.28;57.93;100843.84;4972527;28;68351;-40
2021/08/12 09:30:10;;;;;;;7.65;2.42;;;;;;;32.26;58.28;100857.66;4971802;28;66154;-40
2021/08/12 09:32:50;;;;;;;3.78;2.53;;;;;;;32.35;58.08;100851.91;4975615;28;70508;-41
2021/08/12 09:35:25;;;;;;;2.75;2.53;;;;;;;32.33;57.85;100846.69;4972470;28;66670;-39
2021/08/12 09:38:08;;;;;;;4.63;2.33;;;;;;;32.32;58.50;100850.47;4971481;28;69228;-41
2021/08/12 09:40:39;;;;;;;2.92;2.72;;;;;;;32.32;58.36;100850.47;4968048;28;66149;-41
2021/08/12 09:43:11;;;;;;;2.28;2.08;;;;;;;32.34;58.01;100853.78;4971469;28;69119;-40
2021/08/12 09:45:41;;;;;;;4.03;2.70;;;;;;;32.35;58.01;100844.59;4972975;28;66611;-39
2021/08/12 09:48:15;;;;;;;3.22;2.97;;;;;;;32.41;57.99;100859.13;4990905;28;69085;-40
2021/08/12 09:51:09;;;;;;;5.38;2.90;;;;;;;32.31;58.85;100843.38;4964956;28;66541;-39
2021/08/12 09:53:40;;;;;;;2.80;2.58;;;;;;;32.41;58.49;100843.66;4938097;28;70024;-38
2021/08/12 09:56:12;;;;;;;8.87;3.10;;;;;;;32.41;58.50;100846.38;4979909;28;65513;-40
2021/08/12 09:58:43;;;;;;;2.72;2.53;;;;;;;32.47;58.60;100845.47;4971669;28;69865;-39
2021/08/12 10:01:18;;;;;;;3.40;3.10;;;;;;;32.51;58.31;100847.72;4970595;28;65873;-39
2021/08/12 10:03:51;;;;;;;4.95;2.95;;;;;;;32.47;58.70;100850.09;4969433;28;69435;-39
2021/08/12 10:06:27;;;;;;;2.95;2.50;;;;;;;32.10;58.52;100784.22;4987139;28;66751;-39
2021/08/12 10:09:14;;;;;;;8.35;3.00;;;;;;;32.48;58.53;100838.16;4970607;28;70385;-40
2021/08/12 10:11:45;;;;;;;9.25;3.50;;;;;;;32.54;58.26;100847.25;4966837;28;66186;-39
2021/08/12 10:14:16;;;;;;;3.45;3.15;;;;;;;32.52;59.10;100843.97;4937371;28;69289;-40
2021/08/12 10:16:47;;;;;;;8.43;4.07;;;;;;;32.23;58.84;100806.56;4985811;28;66684;-39
2021/08/12 10:19:18;;;;;;;8.55;4.18;;;;;;;32.52;58.75;100850.22;4977923;28;69757;-39
2021/08/12 10:21:49;;;;;;;12.85;4.65;;;;;;;32.58;59.37;100856.59;4976998;28;67377;-40
2021/08/12 10:24:25;;;;;;;10.23;6.43;;;;;;;32.21;59.59;100788.84;4977039;28;69953;-38
2021/08/12 10:26:58;;;;;;;25.60;6.97;;;;;;;32.64;59.59;100852.94;4976560;28;65433;-37
2021/08/12 10:29:30;;;;;;;14.38;7.05;;;;;;;32.48;59.12;100836.28;4973187;28;70327;-36
2021/08/12 10:32:00;;;;;;;;;;;;;;;32.35;60.51;100877.16;4976137;28;65259;-37
2021/08/12 10:34:33;;;;;;;13.50;6.60;;;;;;;32.64;59.11;100869.25;4989745;28;70679;-37
2021/08/12 10:37:04;;;;;;;20.40;7.22;;;;;;;32.65;59.18;100860.88;4995807;28;66765;-36
2021/08/12 10:39:36;;;;;;;25.58;7.93;;;;;;;32.64;60.37;100867.34;4977801;28;70355;-36
2021/08/12 10:42:07;;;;;;;;;;;;;;;32.38;61.74;100860.41;4974318;28;65658;-37
2021/08/12 10:44:38;;;;;;;14.43;6.82;;;;;;;32.65;60.61;100857.31;4972846;28;70892;-38
2021/08/12 10:47:38;;;;;;;15.43;7.13;;;;;;;32.62;60.72;100857.78;4968156;28;65124;-37
2021/08/12 10:50:29;;;;;;;13.15;6.65;;;;;;;32.66;60.33;100856.28;4973939;28;69150;-38
2021/08/12 10:53:10;;;;;;;8.57;5.82;;;;;;;32.73;59.85;100851.53;4972525;28;65843;-37
2021/08/12 10:55:52;;;;;;;9.55;6.38;;;;;;;32.71;60.40;100848.25;4964175;28;70314;-37
2021/08/12 11:00:55;;;;;;;14.32;6.25;;;;;;;32.71;59.68;100840.09;4955687;28;69620;-36
2021/08/12 11:03:32;;;;;;;8.68;6.53;;;;;;;32.72;59.66;100839.84;4975205;28;66230;-37
2021/08/12 11:06:08;;;;;;;9.02;6.38;;;;;;;32.73;59.90;100846.09;4960449;28;70309;-38
2021/08/12 11:08:52;;;;;;;8.65;5.88;;;;;;;32.68;59.55;100837.81;4974587;28;66220;-39
2021/08/12 11:11:29;;;;;;;9.52;5.88;;;;;;;32.72;59.51;100845.28;4979811;28;70147;-37
2021/08/12 11:14:12;;;;;;;13.10;6.95;;;;;;;32.71;59.55;100856.41;4983442;28;66209;-37
2021/08/12 11:16:45;;;;;;;8.93;6.78;;;;;;;32.70;59.49;100846.59;4988043;28;69616;-38
2021/08/12 11:19:22;;;;;;;8.13;6.40;;;;;;;32.71;59.01;100848.25;4974859;28;65453;-38
2021/08/12 11:21:53;;;;;;;6.93;6.13;;;;;;;32.70;59.27;100847.41;4975850;28;69660;-38
2021/08/12 11:24:25;;;;;;;8.45;6.40;;;;;;;32.69;59.45;100844.94;4979678;28;66549;-37
2021/08/12 11:26:57;;;;;;;7.28;6.55;;;;;;;32.69;59.05;100847.66;4993211;28;69950;-37
2021/08/12 11:29:28;;;;;;;7.03;6.35;;;;;;;32.68;59.24;100840.53;4960870;28;66650;-37
2021/08/12 11:32:09;;;;;;;6.68;6.18;;;;;;;32.70;59.25;100838.44;4978464;28;69884;-37
2021/08/12 11:34:53;;;;;;;7.57;6.82;;;;;;;32.65;59.18;100841.00;4958799;28;65135;-40
2021/08/12 11:37:30;;;;;;;6.95;6.30;;;;;;;32.68;58.89;100843.25;4975164;28;69123;-41
2021/08/12 11:40:10;;;;;;;7.43;6.57;;;;;;;32.65;59.05;100839.16;4974840;28;65572;-40
2021/08/12 11:42:43;;;;;;;8.68;6.68;;;;;;;32.67;59.16;100836.19;4994651;28;69150;-37
2021/08/12 11:45:18;;;;;;;7.18;6.47;;;;;;;32.25;59.14;100768.31;4991695;28;66042;-37
2021/08/12 11:47:57;;;;;;;7.60;6.90;;;;;;;32.65;59.09;100827.44;4980420;28;70238;-38
2021/08/12 11:50:30;;;;;;;7.10;6.35;;;;;;;32.60;59.60;100840.91;4992396;28;66527;-37
2021/08/12 11:53:00;;;;;;;;;;;;;;;32.27;61.40;100847.63;4991306;28;70383;-37
2021/08/12 11:55:36;;;;;;;6.38;5.68;;;;;;;32.41;60.70;100849.09;4964399;28;66379;-38
2021/08/12 11:58:07;;;;;;;5.68;5.18;;;;;;;32.34;61.92;100847.53;4977876;28;69545;-38
2021/08/12 12:00:38;;;;;;;6.57;6.03;;;;;;;32.29;62.25;100845.53;4979806;28;66220;-37
2021/08/12 12:03:09;;;;;;;;;;;;;;;32.00;63.35;100842.56;4973941;28;70487;-37
2021/08/12 12:05:41;;;;;;;9.05;6.40;;;;;;;32.23;62.83;100846.41;4975502;28;66413;-37
2021/08/12 12:08:12;;;;;;;11.23;5.88;;;;;;;32.21;63.62;100843.94;4979929;28;70256;-37